createdAt,value
2022-08-05T00:01:36.268Z,3.40
2022-08-05T00:04:17.642Z,5.28
2022-08-05T00:06:46.992Z,6.88
2022-08-05T00:09:19.508Z,5.43
2022-08-05T00:11:49.049Z,7.70
2022-08-05T00:14:19.580Z,5.25
2022-08-05T00:16:52.466Z,8.63
2022-08-05T00:19:22.585Z,9.95
2022-08-05T00:21:50.907Z,5.43
2022-08-05T00:24:24.854Z,7.22
2022-08-05T00:26:58.858Z,6.93
2022-08-05T00:29:37.624Z,6.97
2022-08-05T00:32:12.154Z,5.93
2022-08-05T00:35:05.172Z,10.67
2022-08-05T00:37:35.612Z,7.97
2022-08-05T00:40:26.918Z,12.57
2022-08-05T00:42:57.377Z,9.65
2022-08-05T00:45:38.144Z,11.63
2022-08-05T00:48:08.314Z,12.40
2022-08-05T00:50:37.868Z,13.67
2022-08-05T00:53:16.079Z,11.10
2022-08-05T00:55:53.541Z,12.53
2022-08-05T00:58:21.471Z,13.13
2022-08-05T01:00:57.106Z,11.23
2022-08-05T01:03:33.439Z,11.77
2022-08-05T01:06:02.641Z,18.67
2022-08-05T01:08:42.652Z,16.43
2022-08-05T01:11:22.589Z,15.43
2022-08-05T01:14:01.161Z,14.53
2022-08-05T01:16:35.590Z,16.23
2022-08-05T01:19:20.870Z,13.00
2022-08-05T01:22:15.663Z,14.13
2022-08-05T01:25:13.581Z,15.10
2022-08-05T01:28:12.721Z,15.23
2022-08-05T01:30:50.640Z,13.97
2022-08-05T01:33:29.454Z,15.87
2022-08-05T01:36:12.964Z,14.73
2022-08-05T01:38:45.296Z,12.83
2022-08-05T01:41:15.906Z,20.13
2022-08-05T01:43:46.135Z,17.80
2022-08-05T01:46:42.175Z,14.63
2022-08-05T01:49:22.668Z,18.23
2022-08-05T01:51:52.042Z,18.03
2022-08-05T01:54:24.637Z,17.87
2022-08-05T01:58:11.255Z,16.27
2022-08-05T01:59:49.443Z,15.93
2022-08-05T02:02:26.239Z,13.00
2022-08-05T02:05:03.100Z,17.60
2022-08-05T02:07:32.151Z,16.70
2022-08-05T02:10:02.081Z,16.53
2022-08-05T02:12:35.679Z,13.83
2022-08-05T02:15:12.502Z,15.37
2022-08-05T02:18:31.228Z,17.13
2022-08-05T02:20:47.006Z,16.40
2022-08-05T02:23:16.806Z,15.60
2022-08-05T02:25:49.140Z,12.10
2022-08-05T02:28:28.460Z,11.15
2022-08-05T02:31:04.022Z,13.93
2022-08-05T02:33:38.793Z,15.20
2022-08-05T02:36:13.625Z,14.17
2022-08-05T02:38:53.098Z,18.37
2022-08-05T02:41:23.380Z,19.83
2022-08-05T02:44:02.478Z,15.97
2022-08-05T02:46:53.384Z,14.37
2022-08-05T02:49:26.797Z,16.77
2022-08-05T02:52:02.804Z,15.23
2022-08-05T02:54:35.918Z,17.83
2022-08-05T02:57:10.452Z,14.83
2022-08-05T02:59:56.317Z,20.87
2022-08-05T03:02:29.487Z,17.73
2022-08-05T03:04:59.042Z,18.30
2022-08-05T03:08:01.373Z,18.53
2022-08-05T03:10:22.095Z,15.97
2022-08-05T03:12:53.550Z,15.90
2022-08-05T03:15:23.533Z,18.50
2022-08-05T03:17:55.986Z,16.50
2022-08-05T03:20:26.349Z,17.70
2022-08-05T03:22:57.626Z,20.03
2022-08-05T03:26:03.777Z,19.47
2022-08-05T03:28:18.731Z,20.70
2022-08-05T03:30:48.432Z,17.77
2022-08-05T03:33:18.650Z,19.30
2022-08-05T03:35:47.652Z,18.93
2022-08-05T03:38:16.315Z,19.13
2022-08-05T03:40:53.240Z,16.30
2022-08-05T03:44:08.533Z,20.77
2022-08-05T03:46:13.584Z,15.53
2022-08-05T03:48:45.327Z,17.07
2022-08-05T03:52:38.380Z,19.17
2022-08-05T03:55:54.208Z,17.87
2022-08-05T03:56:59.887Z,17.63
2022-08-05T03:59:47.262Z,15.00
2022-08-05T04:02:38.796Z,20.97
2022-08-05T04:05:11.825Z,17.00
2022-08-05T04:07:57.375Z,16.03
2022-08-05T04:10:28.986Z,15.17
2022-08-05T04:13:00.513Z,15.13
2022-08-05T04:15:32.866Z,18.93
2022-08-05T04:18:03.728Z,19.17
2022-08-05T04:20:36.447Z,17.13
2022-08-05T04:23:04.394Z,20.57
2022-08-05T04:25:56.456Z,15.67
2022-08-05T04:28:20.748Z,17.03
2022-08-05T04:31:00.778Z,19.13
2022-08-05T04:34:17.376Z,20.43
2022-08-05T04:36:45.930Z,11.70
2022-08-05T04:39:07.092Z,16.47
2022-08-05T04:41:37.617Z,19.67
2022-08-05T04:44:09.242Z,14.30
2022-08-05T04:46:37.787Z,20.30
2022-08-05T04:49:06.253Z,17.23
2022-08-05T04:51:44.096Z,17.53
2022-08-05T04:54:12.342Z,16.77
2022-08-05T04:56:40.498Z,19.40
2022-08-05T04:59:14.002Z,16.67
2022-08-05T05:02:06.812Z,19.60
2022-08-05T05:04:38.501Z,19.83
2022-08-05T05:07:15.880Z,20.90
2022-08-05T05:09:43.893Z,18.70
2022-08-05T05:12:12.393Z,19.60
2022-08-05T05:14:49.409Z,20.70
2022-08-05T05:17:23.977Z,21.03
2022-08-05T05:19:54.573Z,24.30
2022-08-05T05:22:26.744Z,26.57
2022-08-05T05:24:56.885Z,19.53
2022-08-05T05:27:41.294Z,21.50
2022-08-05T05:30:28.774Z,20.37
2022-08-05T05:33:00.888Z,20.33
2022-08-05T05:35:34.159Z,17.83
2022-08-05T05:38:09.361Z,20.07
2022-08-05T05:40:48.075Z,20.50
2022-08-05T05:43:22.184Z,20.70
2022-08-05T05:46:12.265Z,17.37
2022-08-05T05:48:44.048Z,19.57
2022-08-05T05:51:15.604Z,17.90
2022-08-05T05:53:54.405Z,16.90
2022-08-05T05:56:32.883Z,15.53
2022-08-05T05:59:04.086Z,19.97
2022-08-05T06:01:37.811Z,15.40
2022-08-05T06:04:08.460Z,17.03
2022-08-05T06:06:41.576Z,17.37
2022-08-05T06:09:17.429Z,19.97
2022-08-05T06:12:01.809Z,14.67
2022-08-05T06:14:30.606Z,15.60
2022-08-05T06:16:58.883Z,12.70
2022-08-05T06:19:34.792Z,16.73
2022-08-05T06:22:04.047Z,13.23
2022-08-05T06:24:34.045Z,14.87
2022-08-05T06:27:17.269Z,10.97
2022-08-05T06:30:04.200Z,14.90
2022-08-05T06:32:34.098Z,24.00
2022-08-05T06:35:05.836Z,16.90
2022-08-05T06:37:56.546Z,13.37
2022-08-05T06:40:32.302Z,11.80
2022-08-05T06:43:00.476Z,19.67
2022-08-05T06:45:44.673Z,14.47
2022-08-05T06:48:53.098Z,12.50
2022-08-05T06:51:09.601Z,16.57
2022-08-05T06:53:39.374Z,12.77
2022-08-05T06:56:25.825Z,13.17
2022-08-05T06:58:54.939Z,15.60
2022-08-05T07:01:22.872Z,14.37
2022-08-05T07:03:50.919Z,14.53
2022-08-05T07:06:20.635Z,12.17
2022-08-05T07:08:54.884Z,12.00
2022-08-05T07:11:25.228Z,10.83
2022-08-05T07:14:15.584Z,9.23
2022-08-05T07:17:59.725Z,11.60
2022-08-05T07:22:29.826Z,10.70
2022-08-05T07:25:23.752Z,9.17
2022-08-05T07:27:57.160Z,11.47
2022-08-05T07:30:31.971Z,11.53
2022-08-05T07:33:01.184Z,11.47
2022-08-05T07:36:04.657Z,10.07
2022-08-05T07:38:32.910Z,8.10
2022-08-05T07:42:06.976Z,11.33
2022-08-05T07:43:53.191Z,10.17
2022-08-05T07:46:26.280Z,9.87
2022-08-05T07:49:03.506Z,8.57
2022-08-05T07:51:48.940Z,9.60
2022-08-05T07:54:31.699Z,7.20
2022-08-05T07:57:22.733Z,7.97
2022-08-05T07:59:51.803Z,9.50
2022-08-05T08:02:26.486Z,8.33
2022-08-05T08:04:59.915Z,8.60
2022-08-05T08:07:29.151Z,13.70
2022-08-05T08:10:08.138Z,10.00
2022-08-05T08:12:49.472Z,7.37
2022-08-05T08:15:28.061Z,8.07
2022-08-05T08:18:09.721Z,9.03
2022-08-05T08:21:00.085Z,8.13
2022-08-05T08:24:01.969Z,9.97
2022-08-05T08:26:26.789Z,9.57
2022-08-05T08:29:02.048Z,10.83
2022-08-05T08:31:46.561Z,8.17
2022-08-05T08:34:16.281Z,9.43
2022-08-05T08:36:54.055Z,10.60
2022-08-05T08:39:24.690Z,9.33
2022-08-05T08:41:59.823Z,9.00
2022-08-05T08:45:24.221Z,7.03
2022-08-05T08:48:05.947Z,7.67
2022-08-05T08:50:31.793Z,10.33
2022-08-05T08:53:11.966Z,8.50
2022-08-05T08:56:03.691Z,6.37
2022-08-05T08:58:43.268Z,7.50
2022-08-05T09:01:15.785Z,7.97
2022-08-05T09:03:54.557Z,7.47
2022-08-05T09:06:29.417Z,7.10
2022-08-05T09:08:59.826Z,7.07
2022-08-05T09:11:53.147Z,6.37
2022-08-05T09:14:58.770Z,6.70
2022-08-05T09:17:09.345Z,6.80
2022-08-05T09:19:55.458Z,7.87
2022-08-05T09:22:31.859Z,10.90
2022-08-05T09:25:02.126Z,7.40
2022-08-05T09:28:03.799Z,7.13
2022-08-05T09:30:30.203Z,7.63
2022-08-05T09:33:04.806Z,6.63
2022-08-05T09:35:34.399Z,7.73
2022-08-05T09:38:16.694Z,6.63
2022-08-05T09:40:53.886Z,9.10
2022-08-05T09:43:41.300Z,6.40
2022-08-05T09:46:27.665Z,6.83
2022-08-05T09:49:07.322Z,6.63
2022-08-05T09:51:40.028Z,6.57
2022-08-05T09:54:10.166Z,8.37
2022-08-05T09:56:39.633Z,7.57
2022-08-05T09:59:09.934Z,7.60
2022-08-05T10:01:47.311Z,7.07
2022-08-05T10:04:17.362Z,8.90
2022-08-05T10:06:59.232Z,7.37
2022-08-05T10:09:29.789Z,9.70
2022-08-05T10:12:31.702Z,6.30
2022-08-05T10:15:16.416Z,7.27
2022-08-05T10:17:56.601Z,5.87
2022-08-05T10:20:26.517Z,6.70
2022-08-05T10:22:58.477Z,6.77
2022-08-05T10:25:26.429Z,11.27
2022-08-05T10:28:09.358Z,6.83
2022-08-05T10:32:49.208Z,6.83
2022-08-05T10:33:34.240Z,6.90
2022-08-05T10:36:04.947Z,5.77
2022-08-05T10:38:36.329Z,5.43
2022-08-05T10:41:13.705Z,6.70
2022-08-05T10:43:51.960Z,6.53
2022-08-05T10:46:23.887Z,4.87
2022-08-05T10:49:01.473Z,5.30
2022-08-05T10:51:57.755Z,6.93
2022-08-05T10:54:57.034Z,4.33
2022-08-05T10:57:32.149Z,5.50
2022-08-05T11:00:16.112Z,5.00
2022-08-05T11:03:24.603Z,2.93
2022-08-05T11:06:15.651Z,7.13
2022-08-05T11:09:16.873Z,5.33
2022-08-05T11:11:53.699Z,5.20
2022-08-05T11:14:57.412Z,4.10
2022-08-05T11:18:00.020Z,4.57
2022-08-05T11:20:43.921Z,6.60
2022-08-05T11:24:04.679Z,5.33
2022-08-05T11:26:28.690Z,7.50
2022-08-05T11:29:12.331Z,5.30
2022-08-05T11:31:58.503Z,4.53
2022-08-05T11:34:50.944Z,6.43
2022-08-05T11:38:30.793Z,5.30
2022-08-05T11:41:35.289Z,6.57
2022-08-05T11:44:04.787Z,5.43
2022-08-05T11:46:37.680Z,6.00
2022-08-05T11:49:08.057Z,6.10
2022-08-05T11:51:44.586Z,7.63
2022-08-05T11:54:33.259Z,6.20
2022-08-05T11:57:08.701Z,7.77
2022-08-05T11:59:52.206Z,9.73
2022-08-05T12:02:32.057Z,6.27
2022-08-05T12:05:07.067Z,7.33
2022-08-05T12:08:08.263Z,5.30
2022-08-05T12:10:43.442Z,4.90
2022-08-05T12:13:16.428Z,5.87
2022-08-05T12:15:45.459Z,6.23
2022-08-05T12:18:24.392Z,10.00
2022-08-05T12:20:52.592Z,9.07
2022-08-05T12:23:20.515Z,6.03
2022-08-05T12:25:56.494Z,6.47
2022-08-05T12:28:35.349Z,5.97
2022-08-05T12:31:05.597Z,6.50
2022-08-05T12:33:36.313Z,6.73
2022-08-05T12:36:07.018Z,4.60
2022-08-05T12:38:35.483Z,3.60
2022-08-05T12:41:04.703Z,4.20
2022-08-05T12:43:32.531Z,5.90
2022-08-05T12:46:00.409Z,5.27
2022-08-05T12:48:32.640Z,4.13
2022-08-05T12:51:21.762Z,4.20
2022-08-05T12:54:02.915Z,3.90
2022-08-05T12:56:35.440Z,3.20
2022-08-05T12:59:20.947Z,6.53
2022-08-05T13:02:07.786Z,5.13
2022-08-05T13:04:41.598Z,3.43
2022-08-05T13:07:54.732Z,3.10
2022-08-05T13:10:12.531Z,4.63
2022-08-05T13:12:50.795Z,3.40
2022-08-05T13:15:41.694Z,2.40
2022-08-05T13:18:20.107Z,2.97
2022-08-05T13:20:49.157Z,2.77
2022-08-05T13:23:22.651Z,2.20
2022-08-05T13:25:59.705Z,2.80
2022-08-05T13:28:29.727Z,2.70
2022-08-05T13:31:00.397Z,3.23
2022-08-05T13:34:22.502Z,3.33
2022-08-05T13:36:29.149Z,2.60
2022-08-05T13:38:59.074Z,3.37
2022-08-05T13:41:36.038Z,2.77
2022-08-05T13:44:06.241Z,3.37
2022-08-05T13:46:50.731Z,3.63
2022-08-05T13:49:22.001Z,3.40
2022-08-05T13:51:49.863Z,4.37
2022-08-05T13:54:26.242Z,3.40
2022-08-05T13:56:54.670Z,6.17
2022-08-05T13:59:26.996Z,4.53
2022-08-05T14:01:57.784Z,5.13
2022-08-05T14:04:50.505Z,4.00
2022-08-05T14:07:26.073Z,5.97
2022-08-05T14:10:11.094Z,5.43
2022-08-05T14:12:39.300Z,4.53
2022-08-05T14:16:08.114Z,3.40
2022-08-05T14:17:59.653Z,3.33
2022-08-05T14:20:28.010Z,3.07
2022-08-05T14:22:56.272Z,4.60
2022-08-05T14:25:27.980Z,5.43
2022-08-05T14:27:56.693Z,3.93
2022-08-05T14:30:27.986Z,3.50
2022-08-05T14:32:57.211Z,4.10
2022-08-05T14:35:50.002Z,3.00
2022-08-05T14:38:32.682Z,2.50
2022-08-05T14:41:06.408Z,2.97
2022-08-05T14:43:57.434Z,3.27
2022-08-05T14:46:29.063Z,3.27
2022-08-05T14:49:06.499Z,4.60
2022-08-05T14:51:37.544Z,4.27
2022-08-05T14:54:28.328Z,2.70
2022-08-05T14:56:56.043Z,4.57
2022-08-05T15:02:16.418Z,8.33
2022-08-05T15:04:47.911Z,3.63
2022-08-05T15:08:12.061Z,4.70
2022-08-05T15:10:09.654Z,4.43
2022-08-05T15:13:00.209Z,7.80
2022-08-05T15:15:55.700Z,5.43
2022-08-05T15:18:17.189Z,4.90
2022-08-05T15:20:45.992Z,4.70
2022-08-05T15:23:14.444Z,3.73
2022-08-05T15:25:52.110Z,3.37
2022-08-05T15:28:27.189Z,4.70
2022-08-05T15:30:58.987Z,2.93
2022-08-05T15:34:18.647Z,3.97
2022-08-05T15:36:17.447Z,2.77
2022-08-05T15:41:01.025Z,3.00
2022-08-05T15:41:58.352Z,2.43
2022-08-05T15:44:30.291Z,2.07
2022-08-05T15:46:59.308Z,2.17
2022-08-05T15:49:55.199Z,3.60
2022-08-05T15:52:16.611Z,5.23
2022-08-05T15:54:45.401Z,3.63
2022-08-05T15:57:14.602Z,3.50
2022-08-05T15:59:45.628Z,3.00
2022-08-05T16:02:14.801Z,3.70
2022-08-05T16:04:47.780Z,2.67
2022-08-05T16:07:17.225Z,2.93
2022-08-05T16:09:45.999Z,3.07
2022-08-05T16:12:13.879Z,3.13
2022-08-05T16:14:43.244Z,4.00
2022-08-05T16:17:13.325Z,3.53
2022-08-05T16:20:04.926Z,5.33
2022-08-05T16:22:34.017Z,3.07
2022-08-05T16:25:09.400Z,3.10
2022-08-05T16:28:00.512Z,2.73
2022-08-05T16:30:29.012Z,4.50
2022-08-05T16:32:59.134Z,5.80
2022-08-05T16:35:32.437Z,4.97
2022-08-05T16:38:23.731Z,2.47
2022-08-05T16:40:54.980Z,3.07
2022-08-05T16:43:29.134Z,2.60
2022-08-05T16:46:06.669Z,2.97
2022-08-05T16:48:46.364Z,3.90
2022-08-05T16:51:15.815Z,3.40
2022-08-05T16:54:02.883Z,3.77
2022-08-05T16:56:33.775Z,2.83
2022-08-05T16:59:08.185Z,4.83
2022-08-05T17:01:52.921Z,2.67
2022-08-05T17:04:26.483Z,3.57
2022-08-05T17:06:55.536Z,3.37
2022-08-05T17:09:23.524Z,3.83
2022-08-05T17:11:55.951Z,4.70
2022-08-05T17:14:36.796Z,3.53
2022-08-05T17:17:06.105Z,4.13
2022-08-05T17:19:35.493Z,2.40
2022-08-05T17:22:04.163Z,3.00
2022-08-05T17:24:38.731Z,4.47
2022-08-05T17:27:10.297Z,3.93
2022-08-05T17:29:40.955Z,4.57
2022-08-05T17:32:11.920Z,3.57
2022-08-05T17:34:48.097Z,3.90
2022-08-05T17:37:39.508Z,4.57
2022-08-05T17:40:10.223Z,4.73
2022-08-05T17:42:41.724Z,3.40
2022-08-05T17:45:17.818Z,3.17
2022-08-05T17:47:53.566Z,1.10
2022-08-05T17:50:28.789Z,0.77
2022-08-05T17:52:58.949Z,2.53
2022-08-05T17:55:37.524Z,2.37
2022-08-05T17:58:09.866Z,2.17
2022-08-05T18:00:44.278Z,3.13
2022-08-05T18:03:28.190Z,3.10
2022-08-05T18:06:11.245Z,2.17
2022-08-05T18:08:44.764Z,1.70
2022-08-05T18:11:24.235Z,1.17
2022-08-05T18:14:03.448Z,0.90
2022-08-05T18:16:32.467Z,0.93
2022-08-05T18:19:00.510Z,2.20
2022-08-05T18:22:09.114Z,0.60
2022-08-05T18:24:18.298Z,2.50
2022-08-05T18:26:49.025Z,1.80
2022-08-05T18:29:17.029Z,0.87
2022-08-05T18:31:45.061Z,0.63
2022-08-05T18:34:13.215Z,0.90
2022-08-05T18:36:44.025Z,0.80
2022-08-05T18:39:42.240Z,0.90
2022-08-05T18:42:07.603Z,4.70
2022-08-05T18:44:51.726Z,0.83
2022-08-05T18:47:26.882Z,1.87
2022-08-05T18:50:13.050Z,1.07
2022-08-05T18:52:51.164Z,1.57
2022-08-05T18:55:20.362Z,1.70
2022-08-05T18:57:52.835Z,1.63
2022-08-05T19:00:25.043Z,1.40
2022-08-05T19:03:03.187Z,0.90
2022-08-05T19:06:13.328Z,1.73
2022-08-05T19:08:30.275Z,1.53
2022-08-05T19:10:59.646Z,1.80
2022-08-05T19:13:36.138Z,3.87
2022-08-05T19:16:22.146Z,2.37
2022-08-05T19:18:56.717Z,1.40
2022-08-05T19:21:27.581Z,1.87
2022-08-05T19:24:08.946Z,1.83
2022-08-05T19:26:54.847Z,2.07
2022-08-05T19:29:26.748Z,1.33
2022-08-05T19:32:04.950Z,1.17
2022-08-05T19:34:36.634Z,1.30
2022-08-05T19:37:04.704Z,1.60
2022-08-05T19:39:45.850Z,2.10
2022-08-05T19:45:14.406Z,0.67
2022-08-05T19:47:42.527Z,3.83
2022-08-05T19:50:11.931Z,1.13
2022-08-05T19:52:40.531Z,1.10
2022-08-05T19:56:14.802Z,1.70
2022-08-05T19:58:07.104Z,0.87
2022-08-05T20:00:46.829Z,2.30
2022-08-05T20:03:14.747Z,1.83
2022-08-05T20:05:50.351Z,3.83
2022-08-05T20:08:19.768Z,3.03
2022-08-05T20:10:49.923Z,1.10
2022-08-05T20:13:18.107Z,1.03
2022-08-05T20:15:58.309Z,0.83
2022-08-05T20:18:33.635Z,1.13
2022-08-05T20:21:06.553Z,0.97
2022-08-05T20:23:40.240Z,0.70
2022-08-05T20:26:20.045Z,0.93
2022-08-05T20:28:50.447Z,1.67
2022-08-05T20:31:21.616Z,0.53
2022-08-05T20:33:51.258Z,0.70
2022-08-05T20:36:22.394Z,0.83
2022-08-05T20:38:54.051Z,1.63
2022-08-05T20:41:43.499Z,2.20
2022-08-05T20:44:18.995Z,0.80
2022-08-05T20:46:58.775Z,1.77
2022-08-05T20:49:26.722Z,1.23
2022-08-05T20:51:55.493Z,1.53
2022-08-05T20:54:26.995Z,3.50
2022-08-05T20:57:24.905Z,2.43
2022-08-05T21:00:19.978Z,1.20
2022-08-05T21:02:56.990Z,3.50
2022-08-05T21:05:25.562Z,2.83
2022-08-05T21:08:06.597Z,0.83
2022-08-05T21:10:35.449Z,1.27
2022-08-05T21:13:10.202Z,0.87
2022-08-05T21:15:39.179Z,0.63
2022-08-05T21:18:07.235Z,3.40
2022-08-05T21:20:35.102Z,3.93
2022-08-05T21:23:03.576Z,2.13
2022-08-05T21:25:34.047Z,1.57
2022-08-05T21:28:02.699Z,1.10
2022-08-05T21:30:33.221Z,1.07
2022-08-05T21:33:01.754Z,3.23
2022-08-05T21:35:43.825Z,1.90
2022-08-05T21:38:17.918Z,1.37
2022-08-05T21:40:45.691Z,2.83
2022-08-05T21:43:17.761Z,1.47
2022-08-05T21:45:56.805Z,2.13
2022-08-05T21:48:25.738Z,1.73
2022-08-05T21:50:54.325Z,1.03
2022-08-05T21:53:27.233Z,1.03
2022-08-05T21:56:04.130Z,1.53
2022-08-05T21:58:34.609Z,1.87
2022-08-05T22:01:06.433Z,2.63
2022-08-05T22:03:48.494Z,2.13
2022-08-05T22:06:22.405Z,1.10
2022-08-05T22:08:52.111Z,3.23
2022-08-05T22:11:34.542Z,2.13
2022-08-05T22:14:05.678Z,1.07
2022-08-05T22:16:57.909Z,2.27
2022-08-05T22:20:03.266Z,1.43
2022-08-05T22:22:15.535Z,1.13
2022-08-05T22:25:01.531Z,2.20
2022-08-05T22:28:09.825Z,1.33
2022-08-05T22:30:35.866Z,1.87
2022-08-05T22:33:15.902Z,1.17
2022-08-05T22:35:48.833Z,2.03
2022-08-05T22:38:18.890Z,2.50
2022-08-05T22:40:49.590Z,2.20
2022-08-05T22:43:36.998Z,1.10
2022-08-05T22:46:23.091Z,1.27
2022-08-05T22:48:52.892Z,0.73
2022-08-05T22:51:23.115Z,1.67
2022-08-05T22:54:08.559Z,1.60
2022-08-05T22:56:36.554Z,3.90
2022-08-05T22:59:45.996Z,2.93
2022-08-05T23:02:04.358Z,1.87
2022-08-05T23:04:35.994Z,2.17
2022-08-05T23:07:04.194Z,1.77
2022-08-05T23:09:53.392Z,1.67
2022-08-05T23:12:24.434Z,1.83
2022-08-05T23:14:52.771Z,3.37
2022-08-05T23:17:32.654Z,2.53
2022-08-05T23:20:16.719Z,1.40
2022-08-05T23:22:47.480Z,1.83
2022-08-05T23:25:51.089Z,3.23
2022-08-05T23:28:06.889Z,2.97
2022-08-05T23:30:40.280Z,1.23
2022-08-05T23:33:21.950Z,3.27
2022-08-05T23:35:56.354Z,1.83
2022-08-05T23:38:26.678Z,2.60
2022-08-05T23:40:54.706Z,3.13
2022-08-05T23:43:36.942Z,1.83
2022-08-05T23:46:20.829Z,1.17
2022-08-05T23:49:00.460Z,1.20
2022-08-05T23:51:54.869Z,1.67
2022-08-05T23:54:25.636Z,1.30
2022-08-05T23:56:55.753Z,1.57
2022-08-05T23:59:37.726Z,1.77
